sensor_id;sensor_type;location;lat;lon;timestamp;P1;durP1;ratioP1;P2;durP2;ratioP2
15295;SDS011;7749;49.964;7.890;2023-02-15T00:00:14;53.67;;;32.10;;
15295;SDS011;7749;49.964;7.890;2023-02-15T00:02:42;54.20;;;32.57;;
15295;SDS011;7749;49.964;7.890;2023-02-15T00:05:09;70.43;;;40.80;;
15295;SDS011;7749;49.964;7.890;2023-02-15T00:07:37;57.33;;;33.60;;
15295;SDS011;7749;49.964;7.890;2023-02-15T00:10:05;57.17;;;32.57;;
15295;SDS011;7749;49.964;7.890;2023-02-15T00:12:33;50.80;;;32.40;;
15295;SDS011;7749;49.964;7.890;2023-02-15T00:15:02;52.83;;;30.63;;
15295;SDS011;7749;49.964;7.890;2023-02-15T00:17:30;49.77;;;31.70;;
15295;SDS011;7749;49.964;7.890;2023-02-15T00:19:57;53.83;;;31.83;;
15295;SDS011;7749;49.964;7.890;2023-02-15T00:22:25;53.70;;;30.47;;
15295;SDS011;7749;49.964;7.890;2023-02-15T00:24:55;50.80;;;30.23;;
15295;SDS011;7749;49.964;7.890;2023-02-15T00:27:23;52.47;;;32.87;;
15295;SDS011;7749;49.964;7.890;2023-02-15T00:29:50;50.40;;;31.70;;
15295;SDS011;7749;49.964;7.890;2023-02-15T00:32:18;48.03;;;30.83;;
15295;SDS011;7749;49.964;7.890;2023-02-15T00:34:46;49.13;;;31.00;;
15295;SDS011;7749;49.964;7.890;2023-02-15T00:37:13;49.97;;;30.93;;
15295;SDS011;7749;49.964;7.890;2023-02-15T00:39:41;46.20;;;28.17;;
15295;SDS011;7749;49.964;7.890;2023-02-15T00:42:09;51.07;;;30.20;;
15295;SDS011;7749;49.964;7.890;2023-02-15T00:44:36;51.03;;;29.67;;
15295;SDS011;7749;49.964;7.890;2023-02-15T00:47:04;53.00;;;30.53;;
15295;SDS011;7749;49.964;7.890;2023-02-15T00:49:32;50.00;;;29.80;;
15295;SDS011;7749;49.964;7.890;2023-02-15T00:51:59;49.10;;;29.53;;
15295;SDS011;7749;49.964;7.890;2023-02-15T00:54:27;49.27;;;30.30;;
15295;SDS011;7749;49.964;7.890;2023-02-15T00:56:54;52.50;;;30.27;;
15295;SDS011;7749;49.964;7.890;2023-02-15T00:59:22;51.57;;;32.00;;
15295;SDS011;7749;49.964;7.890;2023-02-15T01:01:50;51.03;;;30.37;;
15295;SDS011;7749;49.964;7.890;2023-02-15T01:04:17;51.37;;;29.67;;
15295;SDS011;7749;49.964;7.890;2023-02-15T01:06:45;47.63;;;30.23;;
15295;SDS011;7749;49.964;7.890;2023-02-15T01:09:18;53.00;;;32.13;;
15295;SDS011;7749;49.964;7.890;2023-02-15T01:11:46;51.47;;;31.53;;
15295;SDS011;7749;49.964;7.890;2023-02-15T01:14:14;54.80;;;31.73;;
15295;SDS011;7749;49.964;7.890;2023-02-15T01:16:41;54.77;;;32.00;;
15295;SDS011;7749;49.964;7.890;2023-02-15T01:19:09;56.93;;;35.70;;
15295;SDS011;7749;49.964;7.890;2023-02-15T01:21:37;57.77;;;34.43;;
15295;SDS011;7749;49.964;7.890;2023-02-15T01:24:14;61.63;;;36.77;;
15295;SDS011;7749;49.964;7.890;2023-02-15T01:26:49;56.87;;;34.13;;
15295;SDS011;7749;49.964;7.890;2023-02-15T01:29:16;55.13;;;34.10;;
15295;SDS011;7749;49.964;7.890;2023-02-15T01:31:44;54.07;;;31.47;;
15295;SDS011;7749;49.964;7.890;2023-02-15T01:34:12;57.97;;;34.00;;
15295;SDS011;7749;49.964;7.890;2023-02-15T01:36:39;53.97;;;33.00;;
15295;SDS011;7749;49.964;7.890;2023-02-15T01:39:07;56.07;;;32.23;;
15295;SDS011;7749;49.964;7.890;2023-02-15T01:41:35;52.00;;;31.10;;
15295;SDS011;7749;49.964;7.890;2023-02-15T01:44:02;54.37;;;33.90;;
15295;SDS011;7749;49.964;7.890;2023-02-15T01:46:51;49.07;;;31.43;;
15295;SDS011;7749;49.964;7.890;2023-02-15T01:49:20;50.67;;;31.93;;
15295;SDS011;7749;49.964;7.890;2023-02-15T01:51:53;56.90;;;34.83;;
15295;SDS011;7749;49.964;7.890;2023-02-15T01:54:22;58.53;;;32.70;;
15295;SDS011;7749;49.964;7.890;2023-02-15T01:56:58;55.37;;;31.93;;
15295;SDS011;7749;49.964;7.890;2023-02-15T01:59:30;56.53;;;32.90;;
15295;SDS011;7749;49.964;7.890;2023-02-15T02:02:00;59.20;;;36.77;;
15295;SDS011;7749;49.964;7.890;2023-02-15T02:07:08;51.83;;;32.70;;
15295;SDS011;7749;49.964;7.890;2023-02-15T02:09:39;49.97;;;30.87;;
15295;SDS011;7749;49.964;7.890;2023-02-15T02:12:07;53.33;;;32.30;;
15295;SDS011;7749;49.964;7.890;2023-02-15T02:14:36;52.93;;;31.87;;
15295;SDS011;7749;49.964;7.890;2023-02-15T02:25:46;50.53;;;32.50;;
15295;SDS011;7749;49.964;7.890;2023-02-15T02:34:08;53.47;;;33.90;;
15295;SDS011;7749;49.964;7.890;2023-02-15T02:45:08;51.20;;;31.90;;
15295;SDS011;7749;49.964;7.890;2023-02-15T02:47:38;49.67;;;31.40;;
15295;SDS011;7749;49.964;7.890;2023-02-15T02:50:15;48.00;;;30.13;;
15295;SDS011;7749;49.964;7.890;2023-02-15T02:52:48;46.87;;;29.30;;
15295;SDS011;7749;49.964;7.890;2023-02-15T02:55:23;46.43;;;29.10;;
15295;SDS011;7749;49.964;7.890;2023-02-15T03:00:55;45.73;;;29.17;;
15295;SDS011;7749;49.964;7.890;2023-02-15T03:03:36;44.50;;;31.60;;
15295;SDS011;7749;49.964;7.890;2023-02-15T03:06:12;46.13;;;30.40;;
15295;SDS011;7749;49.964;7.890;2023-02-15T03:08:46;47.50;;;30.47;;
15295;SDS011;7749;49.964;7.890;2023-02-15T03:11:16;50.10;;;31.47;;
15295;SDS011;7749;49.964;7.890;2023-02-15T03:13:44;46.10;;;29.47;;
15295;SDS011;7749;49.964;7.890;2023-02-15T03:16:15;48.67;;;30.33;;
15295;SDS011;7749;49.964;7.890;2023-02-15T03:18:55;49.27;;;32.70;;
15295;SDS011;7749;49.964;7.890;2023-02-15T03:21:32;43.37;;;31.77;;
15295;SDS011;7749;49.964;7.890;2023-02-15T03:24:03;49.73;;;33.60;;
15295;SDS011;7749;49.964;7.890;2023-02-15T03:26:37;48.67;;;31.07;;
15295;SDS011;7749;49.964;7.890;2023-02-15T03:29:09;46.37;;;32.13;;
15295;SDS011;7749;49.964;7.890;2023-02-15T03:31:40;48.40;;;30.17;;
15295;SDS011;7749;49.964;7.890;2023-02-15T03:34:11;46.07;;;31.20;;
15295;SDS011;7749;49.964;7.890;2023-02-15T03:39:35;46.90;;;31.00;;
15295;SDS011;7749;49.964;7.890;2023-02-15T03:42:27;48.87;;;31.47;;
15295;SDS011;7749;49.964;7.890;2023-02-15T03:44:59;47.97;;;30.37;;
15295;SDS011;7749;49.964;7.890;2023-02-15T03:47:43;48.53;;;30.50;;
15295;SDS011;7749;49.964;7.890;2023-02-15T03:50:16;45.30;;;29.83;;
15295;SDS011;7749;49.964;7.890;2023-02-15T03:53:09;46.30;;;30.50;;
15295;SDS011;7749;49.964;7.890;2023-02-15T03:55:45;42.07;;;28.20;;
15295;SDS011;7749;49.964;7.890;2023-02-15T03:58:14;46.53;;;29.33;;
15295;SDS011;7749;49.964;7.890;2023-02-15T04:01:04;44.60;;;28.97;;
15295;SDS011;7749;49.964;7.890;2023-02-15T04:04:06;44.77;;;28.10;;
15295;SDS011;7749;49.964;7.890;2023-02-15T04:06:39;45.37;;;29.73;;
15295;SDS011;7749;49.964;7.890;2023-02-15T04:09:06;46.23;;;28.30;;
15295;SDS011;7749;49.964;7.890;2023-02-15T04:11:53;44.00;;;28.83;;
15295;SDS011;7749;49.964;7.890;2023-02-15T04:14:20;40.50;;;28.07;;
15295;SDS011;7749;49.964;7.890;2023-02-15T04:17:07;47.73;;;29.57;;
15295;SDS011;7749;49.964;7.890;2023-02-15T04:19:35;43.33;;;28.23;;
15295;SDS011;7749;49.964;7.890;2023-02-15T04:22:22;44.70;;;29.03;;
15295;SDS011;7749;49.964;7.890;2023-02-15T04:25:08;49.63;;;29.93;;
15295;SDS011;7749;49.964;7.890;2023-02-15T04:27:42;40.07;;;27.73;;
15295;SDS011;7749;49.964;7.890;2023-02-15T04:30:12;42.53;;;27.17;;
15295;SDS011;7749;49.964;7.890;2023-02-15T04:32:41;46.00;;;29.03;;
15295;SDS011;7749;49.964;7.890;2023-02-15T04:35:08;41.37;;;28.30;;
15295;SDS011;7749;49.964;7.890;2023-02-15T04:37:38;42.83;;;28.60;;
15295;SDS011;7749;49.964;7.890;2023-02-15T04:40:07;39.63;;;26.97;;
15295;SDS011;7749;49.964;7.890;2023-02-15T04:42:37;41.63;;;27.70;;
15295;SDS011;7749;49.964;7.890;2023-02-15T04:45:05;43.37;;;29.13;;
15295;SDS011;7749;49.964;7.890;2023-02-15T04:47:33;41.57;;;28.53;;
15295;SDS011;7749;49.964;7.890;2023-02-15T04:50:01;38.77;;;25.67;;
15295;SDS011;7749;49.964;7.890;2023-02-15T04:52:29;40.30;;;27.37;;
15295;SDS011;7749;49.964;7.890;2023-02-15T04:54:56;39.93;;;26.63;;
15295;SDS011;7749;49.964;7.890;2023-02-15T04:57:24;37.37;;;25.13;;
15295;SDS011;7749;49.964;7.890;2023-02-15T04:59:52;38.57;;;25.00;;
15295;SDS011;7749;49.964;7.890;2023-02-15T05:02:19;37.00;;;26.07;;
15295;SDS011;7749;49.964;7.890;2023-02-15T05:04:47;39.30;;;26.93;;
15295;SDS011;7749;49.964;7.890;2023-02-15T05:07:15;40.23;;;26.00;;
15295;SDS011;7749;49.964;7.890;2023-02-15T05:09:42;39.50;;;26.97;;
15295;SDS011;7749;49.964;7.890;2023-02-15T05:12:10;42.10;;;27.53;;
15295;SDS011;7749;49.964;7.890;2023-02-15T05:14:38;40.23;;;28.07;;
15295;SDS011;7749;49.964;7.890;2023-02-15T05:17:06;39.53;;;26.27;;
15295;SDS011;7749;49.964;7.890;2023-02-15T05:19:33;40.43;;;25.53;;
15295;SDS011;7749;49.964;7.890;2023-02-15T05:22:01;37.70;;;25.10;;
15295;SDS011;7749;49.964;7.890;2023-02-15T05:24:31;39.40;;;25.80;;
15295;SDS011;7749;49.964;7.890;2023-02-15T05:27:17;37.87;;;24.90;;
15295;SDS011;7749;49.964;7.890;2023-02-15T05:30:04;38.90;;;25.93;;
15295;SDS011;7749;49.964;7.890;2023-02-15T05:32:32;38.50;;;26.33;;
15295;SDS011;7749;49.964;7.890;2023-02-15T05:35:03;42.87;;;27.50;;
15295;SDS011;7749;49.964;7.890;2023-02-15T05:37:32;41.43;;;26.63;;
15295;SDS011;7749;49.964;7.890;2023-02-15T05:40:03;39.63;;;26.60;;
15295;SDS011;7749;49.964;7.890;2023-02-15T05:42:31;39.43;;;26.30;;
15295;SDS011;7749;49.964;7.890;2023-02-15T05:44:58;40.03;;;26.10;;
15295;SDS011;7749;49.964;7.890;2023-02-15T05:47:26;39.87;;;26.57;;
15295;SDS011;7749;49.964;7.890;2023-02-15T05:49:56;39.73;;;25.77;;
15295;SDS011;7749;49.964;7.890;2023-02-15T05:52:24;40.60;;;26.80;;
15295;SDS011;7749;49.964;7.890;2023-02-15T05:54:51;43.90;;;28.37;;
15295;SDS011;7749;49.964;7.890;2023-02-15T05:57:19;39.03;;;26.87;;
15295;SDS011;7749;49.964;7.890;2023-02-15T05:59:49;43.93;;;26.70;;
15295;SDS011;7749;49.964;7.890;2023-02-15T06:02:17;38.63;;;29.03;;
15295;SDS011;7749;49.964;7.890;2023-02-15T06:04:45;39.33;;;27.30;;
15295;SDS011;7749;49.964;7.890;2023-02-15T06:07:14;37.90;;;25.53;;
15295;SDS011;7749;49.964;7.890;2023-02-15T06:09:42;38.00;;;25.13;;
15295;SDS011;7749;49.964;7.890;2023-02-15T06:12:09;37.20;;;25.80;;
15295;SDS011;7749;49.964;7.890;2023-02-15T06:14:37;42.43;;;25.80;;
15295;SDS011;7749;49.964;7.890;2023-02-15T06:17:04;40.13;;;24.90;;
15295;SDS011;7749;49.964;7.890;2023-02-15T06:19:35;35.33;;;23.83;;
15295;SDS011;7749;49.964;7.890;2023-02-15T06:22:05;36.10;;;24.63;;
15295;SDS011;7749;49.964;7.890;2023-02-15T06:24:33;37.53;;;26.33;;
15295;SDS011;7749;49.964;7.890;2023-02-15T06:27:01;34.80;;;23.53;;
15295;SDS011;7749;49.964;7.890;2023-02-15T06:29:28;37.10;;;24.13;;
15295;SDS011;7749;49.964;7.890;2023-02-15T06:31:56;36.43;;;24.27;;
15295;SDS011;7749;49.964;7.890;2023-02-15T06:34:24;38.97;;;26.77;;
15295;SDS011;7749;49.964;7.890;2023-02-15T06:36:51;35.70;;;24.63;;
15295;SDS011;7749;49.964;7.890;2023-02-15T06:39:19;40.53;;;24.60;;
15295;SDS011;7749;49.964;7.890;2023-02-15T06:41:46;36.03;;;26.47;;
15295;SDS011;7749;49.964;7.890;2023-02-15T06:44:14;36.30;;;24.20;;
15295;SDS011;7749;49.964;7.890;2023-02-15T06:46:42;36.63;;;24.67;;
15295;SDS011;7749;49.964;7.890;2023-02-15T06:49:09;36.10;;;23.70;;
15295;SDS011;7749;49.964;7.890;2023-02-15T06:51:38;36.27;;;22.70;;
15295;SDS011;7749;49.964;7.890;2023-02-15T06:54:06;34.03;;;21.40;;
15295;SDS011;7749;49.964;7.890;2023-02-15T06:56:36;36.60;;;25.27;;
15295;SDS011;7749;49.964;7.890;2023-02-15T06:59:05;36.13;;;23.70;;
15295;SDS011;7749;49.964;7.890;2023-02-15T07:01:33;35.90;;;23.13;;
15295;SDS011;7749;49.964;7.890;2023-02-15T07:04:01;38.53;;;24.00;;
15295;SDS011;7749;49.964;7.890;2023-02-15T07:06:32;37.17;;;25.03;;
15295;SDS011;7749;49.964;7.890;2023-02-15T07:13:17;38.27;;;24.70;;
15295;SDS011;7749;49.964;7.890;2023-02-15T07:15:45;39.70;;;26.00;;
15295;SDS011;7749;49.964;7.890;2023-02-15T07:18:14;38.03;;;24.20;;
15295;SDS011;7749;49.964;7.890;2023-02-15T07:20:42;40.67;;;25.43;;
15295;SDS011;7749;49.964;7.890;2023-02-15T07:23:09;40.57;;;26.03;;
15295;SDS011;7749;49.964;7.890;2023-02-15T07:25:37;41.83;;;26.03;;
15295;SDS011;7749;49.964;7.890;2023-02-15T07:28:05;42.40;;;26.90;;
15295;SDS011;7749;49.964;7.890;2023-02-15T07:30:35;41.73;;;26.47;;
15295;SDS011;7749;49.964;7.890;2023-02-15T07:33:03;39.93;;;26.03;;
15295;SDS011;7749;49.964;7.890;2023-02-15T07:35:53;41.03;;;25.23;;
15295;SDS011;7749;49.964;7.890;2023-02-15T07:38:25;41.07;;;25.73;;
15295;SDS011;7749;49.964;7.890;2023-02-15T07:41:01;39.90;;;25.10;;
15295;SDS011;7749;49.964;7.890;2023-02-15T07:43:30;42.23;;;26.10;;
15295;SDS011;7749;49.964;7.890;2023-02-15T07:46:03;42.03;;;25.07;;
15295;SDS011;7749;49.964;7.890;2023-02-15T07:48:32;36.83;;;24.40;;
15295;SDS011;7749;49.964;7.890;2023-02-15T07:51:01;37.40;;;23.60;;
15295;SDS011;7749;49.964;7.890;2023-02-15T07:53:30;35.10;;;23.63;;
15295;SDS011;7749;49.964;7.890;2023-02-15T07:56:03;39.60;;;24.93;;
15295;SDS011;7749;49.964;7.890;2023-02-15T07:58:33;39.77;;;25.43;;
15295;SDS011;7749;49.964;7.890;2023-02-15T08:03:53;39.27;;;24.80;;
15295;SDS011;7749;49.964;7.890;2023-02-15T08:06:22;36.67;;;24.33;;
15295;SDS011;7749;49.964;7.890;2023-02-15T08:08:51;38.23;;;24.37;;
15295;SDS011;7749;49.964;7.890;2023-02-15T08:11:24;37.20;;;24.73;;
15295;SDS011;7749;49.964;7.890;2023-02-15T08:16:39;41.93;;;25.33;;
15295;SDS011;7749;49.964;7.890;2023-02-15T08:21:56;36.67;;;23.80;;
15295;SDS011;7749;49.964;7.890;2023-02-15T08:24:29;39.60;;;27.33;;
15295;SDS011;7749;49.964;7.890;2023-02-15T08:27:02;35.30;;;24.13;;
15295;SDS011;7749;49.964;7.890;2023-02-15T08:29:32;36.07;;;24.50;;
15295;SDS011;7749;49.964;7.890;2023-02-15T08:32:07;37.43;;;25.07;;
15295;SDS011;7749;49.964;7.890;2023-02-15T08:34:40;34.53;;;22.50;;
15295;SDS011;7749;49.964;7.890;2023-02-15T08:37:11;36.00;;;23.20;;
15295;SDS011;7749;49.964;7.890;2023-02-15T08:39:39;32.90;;;23.80;;
15295;SDS011;7749;49.964;7.890;2023-02-15T08:42:06;33.13;;;24.33;;
15295;SDS011;7749;49.964;7.890;2023-02-15T08:44:34;32.67;;;23.57;;
15295;SDS011;7749;49.964;7.890;2023-02-15T08:47:04;33.97;;;22.30;;
15295;SDS011;7749;49.964;7.890;2023-02-15T08:49:32;34.00;;;22.60;;
15295;SDS011;7749;49.964;7.890;2023-02-15T08:52:02;33.67;;;22.37;;
15295;SDS011;7749;49.964;7.890;2023-02-15T08:54:30;29.60;;;21.50;;
15295;SDS011;7749;49.964;7.890;2023-02-15T08:56:58;26.70;;;21.87;;
15295;SDS011;7749;49.964;7.890;2023-02-15T08:59:28;27.80;;;20.33;;
15295;SDS011;7749;49.964;7.890;2023-02-15T09:01:58;28.40;;;20.80;;
15295;SDS011;7749;49.964;7.890;2023-02-15T09:04:27;30.20;;;23.27;;
15295;SDS011;7749;49.964;7.890;2023-02-15T09:06:55;26.90;;;20.70;;
15295;SDS011;7749;49.964;7.890;2023-02-15T09:09:23;28.27;;;21.17;;
15295;SDS011;7749;49.964;7.890;2023-02-15T09:11:51;29.30;;;20.67;;
15295;SDS011;7749;49.964;7.890;2023-02-15T09:14:25;28.47;;;20.70;;
15295;SDS011;7749;49.964;7.890;2023-02-15T09:16:54;30.13;;;21.20;;
15295;SDS011;7749;49.964;7.890;2023-02-15T09:19:22;27.57;;;20.37;;
15295;SDS011;7749;49.964;7.890;2023-02-15T09:21:50;31.90;;;20.80;;
15295;SDS011;7749;49.964;7.890;2023-02-15T09:24:21;30.10;;;21.37;;
15295;SDS011;7749;49.964;7.890;2023-02-15T09:26:49;30.10;;;20.70;;
15295;SDS011;7749;49.964;7.890;2023-02-15T09:29:17;30.57;;;21.27;;
15295;SDS011;7749;49.964;7.890;2023-02-15T09:31:46;30.07;;;21.10;;
15295;SDS011;7749;49.964;7.890;2023-02-15T09:34:18;32.33;;;23.07;;
15295;SDS011;7749;49.964;7.890;2023-02-15T09:36:49;32.50;;;24.03;;
15295;SDS011;7749;49.964;7.890;2023-02-15T09:39:19;30.43;;;22.37;;
15295;SDS011;7749;49.964;7.890;2023-02-15T10:01:35;27.10;;;20.73;;
15295;SDS011;7749;49.964;7.890;2023-02-15T10:04:26;26.13;;;20.20;;
15295;SDS011;7749;49.964;7.890;2023-02-15T10:08:03;27.23;;;21.40;;
15295;SDS011;7749;49.964;7.890;2023-02-15T10:18:18;27.37;;;19.57;;
15295;SDS011;7749;49.964;7.890;2023-02-15T10:27:13;24.70;;;18.70;;
15295;SDS011;7749;49.964;7.890;2023-02-15T10:29:49;25.73;;;19.57;;
15295;SDS011;7749;49.964;7.890;2023-02-15T10:32:29;23.67;;;19.20;;
15295;SDS011;7749;49.964;7.890;2023-02-15T10:35:11;26.73;;;18.70;;
15295;SDS011;7749;49.964;7.890;2023-02-15T10:54:53;23.73;;;19.40;;
15295;SDS011;7749;49.964;7.890;2023-02-15T10:57:37;26.70;;;19.70;;
15295;SDS011;7749;49.964;7.890;2023-02-15T11:00:29;26.60;;;20.20;;
15295;SDS011;7749;49.964;7.890;2023-02-15T11:06:08;25.07;;;18.40;;
15295;SDS011;7749;49.964;7.890;2023-02-15T11:08:40;25.63;;;18.60;;
15295;SDS011;7749;49.964;7.890;2023-02-15T11:11:12;24.87;;;18.77;;
15295;SDS011;7749;49.964;7.890;2023-02-15T11:13:47;23.80;;;18.77;;
15295;SDS011;7749;49.964;7.890;2023-02-15T11:16:21;23.17;;;19.00;;
15295;SDS011;7749;49.964;7.890;2023-02-15T11:19:08;25.30;;;18.70;;
15295;SDS011;7749;49.964;7.890;2023-02-15T11:21:44;27.23;;;21.70;;
15295;SDS011;7749;49.964;7.890;2023-02-15T11:24:18;24.07;;;19.93;;
15295;SDS011;7749;49.964;7.890;2023-02-15T11:26:50;23.73;;;19.53;;
15295;SDS011;7749;49.964;7.890;2023-02-15T11:29:40;23.80;;;18.87;;
15295;SDS011;7749;49.964;7.890;2023-02-15T11:32:21;24.33;;;18.97;;
15295;SDS011;7749;49.964;7.890;2023-02-15T11:37:43;21.87;;;18.53;;
15295;SDS011;7749;49.964;7.890;2023-02-15T11:40:57;23.07;;;18.57;;
15295;SDS011;7749;49.964;7.890;2023-02-15T11:46:05;21.57;;;17.90;;
15295;SDS011;7749;49.964;7.890;2023-02-15T11:48:38;21.67;;;18.53;;
15295;SDS011;7749;49.964;7.890;2023-02-15T11:51:11;21.80;;;17.93;;
15295;SDS011;7749;49.964;7.890;2023-02-15T11:53:50;22.87;;;18.23;;
15295;SDS011;7749;49.964;7.890;2023-02-15T11:56:22;24.10;;;18.50;;
15295;SDS011;7749;49.964;7.890;2023-02-15T11:58:55;21.80;;;18.67;;
15295;SDS011;7749;49.964;7.890;2023-02-15T12:01:43;21.50;;;17.83;;
15295;SDS011;7749;49.964;7.890;2023-02-15T12:06:47;22.30;;;18.63;;
15295;SDS011;7749;49.964;7.890;2023-02-15T12:12:22;20.43;;;15.90;;
15295;SDS011;7749;49.964;7.890;2023-02-15T12:14:55;21.23;;;17.03;;
15295;SDS011;7749;49.964;7.890;2023-02-15T12:18:15;22.43;;;16.57;;
15295;SDS011;7749;49.964;7.890;2023-02-15T12:22:50;24.03;;;17.27;;
15295;SDS011;7749;49.964;7.890;2023-02-15T12:28:02;21.30;;;16.93;;
15295;SDS011;7749;49.964;7.890;2023-02-15T12:30:32;19.73;;;16.30;;
15295;SDS011;7749;49.964;7.890;2023-02-15T12:33:13;21.67;;;17.00;;
15295;SDS011;7749;49.964;7.890;2023-02-15T12:35:54;21.07;;;17.33;;
15295;SDS011;7749;49.964;7.890;2023-02-15T12:38:28;21.33;;;17.13;;
15295;SDS011;7749;49.964;7.890;2023-02-15T12:41:00;21.23;;;16.23;;
15295;SDS011;7749;49.964;7.890;2023-02-15T12:43:32;19.60;;;16.07;;
15295;SDS011;7749;49.964;7.890;2023-02-15T12:46:21;21.07;;;16.60;;
15295;SDS011;7749;49.964;7.890;2023-02-15T12:49:04;22.33;;;17.43;;
15295;SDS011;7749;49.964;7.890;2023-02-15T12:51:51;21.53;;;16.63;;
15295;SDS011;7749;49.964;7.890;2023-02-15T12:56:57;21.00;;;15.00;;
15295;SDS011;7749;49.964;7.890;2023-02-15T12:59:25;20.97;;;16.73;;
15295;SDS011;7749;49.964;7.890;2023-02-15T13:01:53;20.30;;;16.30;;
15295;SDS011;7749;49.964;7.890;2023-02-15T13:06:50;23.67;;;17.20;;
15295;SDS011;7749;49.964;7.890;2023-02-15T13:09:34;20.93;;;17.50;;
15295;SDS011;7749;49.964;7.890;2023-02-15T13:12:15;21.13;;;16.40;;
15295;SDS011;7749;49.964;7.890;2023-02-15T13:14:47;21.67;;;16.93;;
15295;SDS011;7749;49.964;7.890;2023-02-15T13:17:24;21.63;;;17.23;;
15295;SDS011;7749;49.964;7.890;2023-02-15T13:20:00;21.50;;;17.70;;
15295;SDS011;7749;49.964;7.890;2023-02-15T13:22:38;22.03;;;17.17;;
15295;SDS011;7749;49.964;7.890;2023-02-15T13:25:23;23.27;;;17.63;;
15295;SDS011;7749;49.964;7.890;2023-02-15T13:27:55;20.63;;;16.93;;
15295;SDS011;7749;49.964;7.890;2023-02-15T13:30:32;20.27;;;16.50;;
15295;SDS011;7749;49.964;7.890;2023-02-15T13:33:03;25.17;;;18.40;;
15295;SDS011;7749;49.964;7.890;2023-02-15T13:35:49;21.93;;;17.50;;
15295;SDS011;7749;49.964;7.890;2023-02-15T13:41:03;23.87;;;19.33;;
15295;SDS011;7749;49.964;7.890;2023-02-15T13:43:42;24.90;;;18.93;;
15295;SDS011;7749;49.964;7.890;2023-02-15T13:46:28;23.60;;;19.03;;
15295;SDS011;7749;49.964;7.890;2023-02-15T13:49:24;25.47;;;18.57;;
15295;SDS011;7749;49.964;7.890;2023-02-15T13:52:24;25.00;;;18.83;;
15295;SDS011;7749;49.964;7.890;2023-02-15T14:03:51;32.57;;;21.87;;
15295;SDS011;7749;49.964;7.890;2023-02-15T14:14:40;24.43;;;19.90;;
15295;SDS011;7749;49.964;7.890;2023-02-15T14:17:43;26.37;;;20.63;;
15295;SDS011;7749;49.964;7.890;2023-02-15T14:26:06;26.57;;;20.63;;
15295;SDS011;7749;49.964;7.890;2023-02-15T14:31:41;28.93;;;20.13;;
15295;SDS011;7749;49.964;7.890;2023-02-15T14:34:35;31.13;;;21.00;;
15295;SDS011;7749;49.964;7.890;2023-02-15T14:40:03;25.57;;;20.57;;
15295;SDS011;7749;49.964;7.890;2023-02-15T14:43:01;26.97;;;20.47;;
15295;SDS011;7749;49.964;7.890;2023-02-15T14:45:40;28.13;;;20.40;;
15295;SDS011;7749;49.964;7.890;2023-02-15T14:48:41;25.63;;;20.03;;
15295;SDS011;7749;49.964;7.890;2023-02-15T14:54:10;32.47;;;21.20;;
15295;SDS011;7749;49.964;7.890;2023-02-15T14:56:44;26.77;;;20.87;;
15295;SDS011;7749;49.964;7.890;2023-02-15T15:01:51;27.43;;;21.57;;
15295;SDS011;7749;49.964;7.890;2023-02-15T15:04:24;31.80;;;21.27;;
15295;SDS011;7749;49.964;7.890;2023-02-15T15:07:02;31.43;;;21.30;;
15295;SDS011;7749;49.964;7.890;2023-02-15T15:09:30;28.13;;;20.60;;
15295;SDS011;7749;49.964;7.890;2023-02-15T15:14:53;29.17;;;20.83;;
15295;SDS011;7749;49.964;7.890;2023-02-15T15:18:07;28.17;;;20.80;;
15295;SDS011;7749;49.964;7.890;2023-02-15T15:25:50;26.77;;;21.50;;
15295;SDS011;7749;49.964;7.890;2023-02-15T15:28:52;29.73;;;21.87;;
15295;SDS011;7749;49.964;7.890;2023-02-15T15:31:30;30.07;;;22.23;;
15295;SDS011;7749;49.964;7.890;2023-02-15T15:36:57;26.97;;;21.20;;
15295;SDS011;7749;49.964;7.890;2023-02-15T15:50:34;29.70;;;23.40;;
15295;SDS011;7749;49.964;7.890;2023-02-15T15:53:05;31.63;;;23.53;;
15295;SDS011;7749;49.964;7.890;2023-02-15T15:55:42;29.07;;;22.53;;
15295;SDS011;7749;49.964;7.890;2023-02-15T15:58:13;30.20;;;23.30;;
15295;SDS011;7749;49.964;7.890;2023-02-15T16:00:55;31.03;;;22.37;;
15295;SDS011;7749;49.964;7.890;2023-02-15T16:03:28;30.87;;;22.37;;
15295;SDS011;7749;49.964;7.890;2023-02-15T16:05:56;31.07;;;23.83;;
15295;SDS011;7749;49.964;7.890;2023-02-15T16:08:42;33.47;;;24.53;;
15295;SDS011;7749;49.964;7.890;2023-02-15T16:11:17;32.50;;;24.53;;
15295;SDS011;7749;49.964;7.890;2023-02-15T16:13:56;30.40;;;24.33;;
15295;SDS011;7749;49.964;7.890;2023-02-15T16:16:25;32.77;;;24.80;;
15295;SDS011;7749;49.964;7.890;2023-02-15T16:18:56;31.73;;;25.73;;
15295;SDS011;7749;49.964;7.890;2023-02-15T16:21:43;32.73;;;26.13;;
15295;SDS011;7749;49.964;7.890;2023-02-15T16:27:10;35.10;;;25.20;;
15295;SDS011;7749;49.964;7.890;2023-02-15T16:29:48;31.63;;;25.20;;
15295;SDS011;7749;49.964;7.890;2023-02-15T16:34:58;37.17;;;28.57;;
15295;SDS011;7749;49.964;7.890;2023-02-15T16:37:47;37.50;;;29.73;;
15295;SDS011;7749;49.964;7.890;2023-02-15T16:43:00;32.20;;;25.80;;
15295;SDS011;7749;49.964;7.890;2023-02-15T16:45:30;36.83;;;26.43;;
15295;SDS011;7749;49.964;7.890;2023-02-15T16:48:00;35.90;;;28.30;;
15295;SDS011;7749;49.964;7.890;2023-02-15T16:50:48;35.90;;;27.97;;
15295;SDS011;7749;49.964;7.890;2023-02-15T16:53:21;35.37;;;28.50;;
15295;SDS011;7749;49.964;7.890;2023-02-15T16:56:01;35.67;;;27.77;;
15295;SDS011;7749;49.964;7.890;2023-02-15T16:58:41;36.67;;;28.27;;
15295;SDS011;7749;49.964;7.890;2023-02-15T17:01:14;35.50;;;27.57;;
15295;SDS011;7749;49.964;7.890;2023-02-15T17:03:42;35.97;;;29.17;;
15295;SDS011;7749;49.964;7.890;2023-02-15T17:06:26;39.63;;;29.67;;
15295;SDS011;7749;49.964;7.890;2023-02-15T17:09:03;35.10;;;28.03;;
15295;SDS011;7749;49.964;7.890;2023-02-15T17:11:37;39.63;;;29.80;;
15295;SDS011;7749;49.964;7.890;2023-02-15T17:16:42;36.07;;;28.73;;
15295;SDS011;7749;49.964;7.890;2023-02-15T17:21:47;38.97;;;28.13;;
15295;SDS011;7749;49.964;7.890;2023-02-15T17:24:20;39.23;;;30.50;;
15295;SDS011;7749;49.964;7.890;2023-02-15T17:27:00;39.90;;;30.40;;
15295;SDS011;7749;49.964;7.890;2023-02-15T17:29:38;39.67;;;28.80;;
15295;SDS011;7749;49.964;7.890;2023-02-15T17:32:15;38.17;;;29.13;;
15295;SDS011;7749;49.964;7.890;2023-02-15T17:35:21;41.57;;;30.10;;
15295;SDS011;7749;49.964;7.890;2023-02-15T17:37:59;40.63;;;30.70;;
15295;SDS011;7749;49.964;7.890;2023-02-15T17:40:34;38.33;;;29.50;;
15295;SDS011;7749;49.964;7.890;2023-02-15T17:43:02;40.87;;;29.57;;
15295;SDS011;7749;49.964;7.890;2023-02-15T17:45:31;41.50;;;31.83;;
15295;SDS011;7749;49.964;7.890;2023-02-15T17:48:08;45.13;;;31.53;;
15295;SDS011;7749;49.964;7.890;2023-02-15T17:50:44;44.17;;;31.47;;
15295;SDS011;7749;49.964;7.890;2023-02-15T17:53:11;42.90;;;31.03;;
15295;SDS011;7749;49.964;7.890;2023-02-15T17:55:42;43.97;;;31.50;;
15295;SDS011;7749;49.964;7.890;2023-02-15T18:00:43;38.23;;;28.33;;
15295;SDS011;7749;49.964;7.890;2023-02-15T18:06:34;39.80;;;29.20;;
15295;SDS011;7749;49.964;7.890;2023-02-15T18:09:24;39.20;;;30.13;;
15295;SDS011;7749;49.964;7.890;2023-02-15T18:14:59;45.37;;;31.83;;
15295;SDS011;7749;49.964;7.890;2023-02-15T18:17:29;43.60;;;32.13;;
15295;SDS011;7749;49.964;7.890;2023-02-15T18:20:05;42.17;;;31.03;;
15295;SDS011;7749;49.964;7.890;2023-02-15T18:22:58;43.37;;;31.83;;
15295;SDS011;7749;49.964;7.890;2023-02-15T18:25:28;44.90;;;31.93;;
15295;SDS011;7749;49.964;7.890;2023-02-15T18:27:55;41.97;;;31.57;;
15295;SDS011;7749;49.964;7.890;2023-02-15T18:30:23;42.13;;;30.13;;